Nova Guarita, Brazil
Current Conditions -  °F | °C
As of 2:00 PM on Friday 19 Dec 2014 (Local Time) from SBAT Reporting Station
Rain Showers Rain Showers  
Wind Chill: 91°   Ceiling: Unl
Heat Index: 100°   Visibility: 6mi
Dew Point: 73°   Wind: 3mph
Humidity: 55%   Direction: 350°N
Pressure: 29.8"   Gusts: NA
Location:  10.31°S, 55.41°W
Report Text: SBAT 191700Z 35003KT 9999 VCSH SCT027 FEW030TCU 33/23 Q1009
Loading
Personal Weather Stations






























Interactive Weather Map New forecast layout! Learn more

10-Day Weather Forecast

Advertisements
Track Severe Weather on mobile